Portada
METAR-TAF:

METAR-TAF

Aeroports :

Thiruvananthapuram, Índia

latitud: 08-28N, longitud: 076-57E, altitud: 4 m

Observació

L'informe es va fer fa 17 minuts, a les 07:30 UTC
Vent 9 kt del Nord-Oest
Temperatura 30°C
Humitat 75%
Pressió 1007 hPa
Visibilitat: 6000 m
Núvols disperses a una alçada de 1500 ft
Cel ennuvolat a una alçada de 8000 ft

METAR: VOTV 230730Z 32009KT 6000 SCT015 BKN080 30/25 Q1007 NOSIG

Hora: 13:17 (07:47 UTC)

Pronòstic

L'informe es va fer fa 2 hores i 47 minuts, a les 05:00 UTC
Pronòstic vàlid del 23 a les 06 UTC al 23 a les 15 UTC
Vent 10 kt del Nord/Nord-Oest
Visibilitat: 6000 m
Núvols disperses a una alçada de 1500 ft
Escasses núvols a una alçada de 2500 ft, Cumulonimbus.
Cel ennuvolat a una alçada de 8000 ft
Temporalment
l' 23 a les 10 UTC al 23 a les 15 UTC
Vent 10 kt del Nord/Nord-Oest
Visibilitat: 3000 m
tempesta, pluja, pluja

TAF: VOTV 230500Z 2306/2315 34010KT 6000 SCT015 FEW025CB BKN080 TEMPO 2310/2315 34010KT 3000 TSRA RA

Observacions i pronòstics meteorològics de més de 4000 aeroports (METAR i TAF).

Les estacions disponibles són els punts grocs i vermells al mapa.

Posi el ratolí al punt desitjat per veure el nom de l'estació.

Feu clic per veure les observacions i els pronòstics meteorològics.

Per canviar el mapa: feu clic els botons verds amb una creu de color negre per apropar; al botó verd amb un guió per allunyar la imatge; o en les fletxes verdes per a mapes adjacents.


METAR-TAF: